createdAt,value
2017-12-17T00:01:59.514Z,2.10
2017-12-17T00:04:02.214Z,2.00
2017-12-17T00:06:04.908Z,2.00
2017-12-17T00:08:08.379Z,2.10
2017-12-17T00:10:11.056Z,2.10
2017-12-17T00:12:13.756Z,2.10
2017-12-17T00:14:17.278Z,2.10
2017-12-17T00:16:19.966Z,2.10
2017-12-17T00:18:22.623Z,2.10
2017-12-17T00:20:25.316Z,2.00
2017-12-17T00:22:27.983Z,1.90
2017-12-17T00:24:30.652Z,2.00
2017-12-17T00:26:33.347Z,1.90
2017-12-17T00:28:36.015Z,1.90
2017-12-17T00:30:38.723Z,1.80
2017-12-17T00:32:41.847Z,1.90
2017-12-17T00:34:45.265Z,1.90
2017-12-17T00:36:47.989Z,1.90
2017-12-17T00:38:50.658Z,1.90
2017-12-17T00:40:53.305Z,2.00
2017-12-17T00:42:56.002Z,2.00
2017-12-17T00:44:58.671Z,2.10
2017-12-17T00:47:01.326Z,2.10
2017-12-17T00:49:04.040Z,2.10
2017-12-17T00:51:06.722Z,2.10
2017-12-17T00:53:09.394Z,2.20
2017-12-17T00:55:12.088Z,2.20
2017-12-17T00:57:14.743Z,2.30
2017-12-17T00:59:17.417Z,2.20
2017-12-17T01:01:20.084Z,2.20
2017-12-17T01:03:22.743Z,2.20
2017-12-17T01:05:25.542Z,2.10
2017-12-17T01:07:28.242Z,2.20
2017-12-17T01:09:30.911Z,2.20
2017-12-17T01:11:33.559Z,2.20
2017-12-17T01:13:36.249Z,2.20
2017-12-17T01:15:38.939Z,2.30
2017-12-17T01:17:41.613Z,2.20
2017-12-17T01:19:44.303Z,2.20
2017-12-17T01:21:46.970Z,2.20
2017-12-17T01:23:49.649Z,2.20
2017-12-17T01:25:52.328Z,2.20
2017-12-17T01:27:54.980Z,2.10
2017-12-17T01:29:57.663Z,2.10
2017-12-17T01:32:00.313Z,2.10
2017-12-17T01:34:02.966Z,2.20
2017-12-17T01:36:06.428Z,2.20
2017-12-17T01:38:09.098Z,2.20
2017-12-17T01:40:11.806Z,2.20
2017-12-17T01:42:15.294Z,2.20
2017-12-17T01:44:18.734Z,2.20
2017-12-17T01:46:21.500Z,2.20
2017-12-17T01:48:24.218Z,2.20
2017-12-17T01:50:26.908Z,2.20
2017-12-17T01:52:31.114Z,2.30
2017-12-17T01:54:33.945Z,2.30
2017-12-17T01:56:36.624Z,2.30
2017-12-17T01:58:39.356Z,2.20
2017-12-17T02:00:42.032Z,2.20
2017-12-17T02:02:45.472Z,2.20
2017-12-17T02:04:48.197Z,2.20
2017-12-17T02:06:50.921Z,2.10
2017-12-17T02:08:53.626Z,2.10
2017-12-17T02:10:56.333Z,2.10
2017-12-17T02:12:59.019Z,2.00
2017-12-17T02:15:02.499Z,1.90
2017-12-17T02:17:05.198Z,1.80
2017-12-17T02:19:08.657Z,1.70
2017-12-17T02:21:12.169Z,1.60
2017-12-17T02:23:14.870Z,1.60
2017-12-17T02:25:18.322Z,1.30
2017-12-17T02:27:21.070Z,1.30
2017-12-17T02:29:23.766Z,1.30
2017-12-17T02:31:26.464Z,1.30
2017-12-17T02:33:29.169Z,1.20
2017-12-17T02:35:32.627Z,1.10
2017-12-17T02:37:35.308Z,1.10
2017-12-17T02:39:38.017Z,1.00
2017-12-17T02:41:41.480Z,1.10
2017-12-17T02:43:44.157Z,1.10
2017-12-17T02:45:46.865Z,1.00
2017-12-17T02:47:50.338Z,0.90
2017-12-17T02:49:53.050Z,0.90
2017-12-17T02:51:55.768Z,0.90
2017-12-17T02:53:58.463Z,0.80
2017-12-17T02:56:01.169Z,0.80
2017-12-17T02:58:04.689Z,0.70
2017-12-17T03:00:07.388Z,0.70
2017-12-17T03:02:10.084Z,0.70
2017-12-17T03:04:12.800Z,0.70
2017-12-17T03:06:15.472Z,0.60
2017-12-17T03:08:18.924Z,0.60
2017-12-17T03:10:21.700Z,0.60
2017-12-17T03:12:24.408Z,0.60
2017-12-17T03:14:27.852Z,0.60
2017-12-17T03:16:30.547Z,0.60
2017-12-17T03:18:33.263Z,0.60
2017-12-17T03:20:36.735Z,0.60
2017-12-17T03:22:39.446Z,0.60
2017-12-17T03:24:42.136Z,0.60
2017-12-17T03:26:44.850Z,0.50
2017-12-17T03:28:47.570Z,0.50
2017-12-17T03:30:51.025Z,0.60
2017-12-17T03:32:53.716Z,0.50
2017-12-17T03:34:56.435Z,0.60
2017-12-17T03:36:59.124Z,0.70
2017-12-17T03:39:01.822Z,0.80
2017-12-17T03:41:04.549Z,0.90
2017-12-17T03:43:08.020Z,0.90
2017-12-17T03:45:10.708Z,1.00
2017-12-17T03:47:14.192Z,1.00
2017-12-17T03:49:16.898Z,1.00
2017-12-17T03:51:20.348Z,1.00
2017-12-17T03:53:23.076Z,1.00
2017-12-17T03:55:25.815Z,0.90
2017-12-17T03:57:28.488Z,0.90
2017-12-17T03:59:31.201Z,0.90
2017-12-17T04:01:33.957Z,0.80
2017-12-17T04:03:36.644Z,0.90
2017-12-17T04:05:40.116Z,0.90
2017-12-17T04:07:42.801Z,0.90
2017-12-17T04:09:45.489Z,0.90
2017-12-17T04:11:48.956Z,0.80
2017-12-17T04:13:51.640Z,0.80
2017-12-17T04:15:54.362Z,0.80
2017-12-17T04:17:57.076Z,0.90
2017-12-17T04:19:59.757Z,0.90
2017-12-17T04:22:02.477Z,0.90
2017-12-17T04:24:05.938Z,0.90
2017-12-17T04:26:08.616Z,0.80
2017-12-17T04:28:11.375Z,0.80
2017-12-17T04:30:14.052Z,0.70
2017-12-17T04:32:16.748Z,0.70
2017-12-17T04:34:19.489Z,0.70
2017-12-17T04:36:22.165Z,0.60
2017-12-17T04:38:24.861Z,0.60
2017-12-17T04:40:27.573Z,0.60
2017-12-17T04:42:31.052Z,0.50
2017-12-17T04:44:33.759Z,0.50
2017-12-17T04:46:36.466Z,0.60
2017-12-17T04:48:39.161Z,0.50
2017-12-17T04:50:41.836Z,0.50
2017-12-17T04:52:44.548Z,0.50
2017-12-17T04:54:48.004Z,0.50
2017-12-17T04:56:50.690Z,0.50
2017-12-17T04:58:53.435Z,0.60
2017-12-17T05:00:56.117Z,0.50
2017-12-17T05:02:58.786Z,0.50
2017-12-17T05:05:01.521Z,0.50
2017-12-17T05:07:04.956Z,0.40
2017-12-17T05:09:07.656Z,0.40
2017-12-17T05:11:10.516Z,0.50
2017-12-17T05:13:13.230Z,0.40
2017-12-17T05:15:15.906Z,0.40
2017-12-17T05:17:18.648Z,0.30
2017-12-17T05:19:21.343Z,0.40
2017-12-17T05:21:24.037Z,0.30
2017-12-17T05:23:26.758Z,0.30
2017-12-17T05:25:29.455Z,0.40
2017-12-17T05:27:32.216Z,0.30
2017-12-17T05:29:34.938Z,0.30
2017-12-17T05:31:37.621Z,0.30
2017-12-17T05:33:40.288Z,0.40
2017-12-17T05:35:43.003Z,0.40
2017-12-17T05:37:46.507Z,0.40
2017-12-17T05:39:49.964Z,0.40
2017-12-17T05:41:52.657Z,0.40
2017-12-17T05:43:55.362Z,0.40
2017-12-17T05:45:58.060Z,0.30
2017-12-17T05:48:00.791Z,0.40
2017-12-17T05:50:03.482Z,0.50
2017-12-17T05:52:06.939Z,0.50
2017-12-17T05:54:09.671Z,0.50
2017-12-17T05:56:12.371Z,0.50
2017-12-17T05:58:15.056Z,0.50
2017-12-17T06:00:17.784Z,0.50
2017-12-17T06:02:21.232Z,0.60
2017-12-17T06:04:23.926Z,0.60
2017-12-17T06:06:26.658Z,0.60
2017-12-17T06:08:29.340Z,0.60
2017-12-17T06:10:32.033Z,0.60
2017-12-17T06:12:34.742Z,0.60
2017-12-17T06:14:37.450Z,0.50
2017-12-17T06:16:40.169Z,0.60
2017-12-17T06:18:42.864Z,0.60
2017-12-17T06:20:45.559Z,0.60
2017-12-17T06:22:49.041Z,0.50
2017-12-17T06:24:51.759Z,0.50
2017-12-17T06:26:54.801Z,0.60
2017-12-17T06:28:59.566Z,0.60
2017-12-17T06:31:02.258Z,0.60
2017-12-17T06:33:04.972Z,0.60
2017-12-17T06:35:07.654Z,0.60
2017-12-17T06:37:10.343Z,0.60
2017-12-17T06:39:13.071Z,0.60
2017-12-17T06:41:15.829Z,0.60
2017-12-17T06:43:18.521Z,0.70
2017-12-17T06:45:21.256Z,0.70
2017-12-17T06:47:23.945Z,0.70
2017-12-17T06:49:27.413Z,0.70
2017-12-17T06:51:30.162Z,0.70
2017-12-17T06:53:32.854Z,0.70
2017-12-17T06:55:35.530Z,0.70
2017-12-17T06:57:38.286Z,0.60
2017-12-17T06:59:40.968Z,0.70
2017-12-17T07:01:43.655Z,0.70
2017-12-17T07:03:46.397Z,0.70
2017-12-17T07:05:49.081Z,0.80
2017-12-17T07:07:51.787Z,0.80
2017-12-17T07:09:54.542Z,0.80
2017-12-17T07:11:57.301Z,0.80
2017-12-17T07:13:59.983Z,0.80
2017-12-17T07:16:02.697Z,0.80
2017-12-17T07:18:05.389Z,0.80
2017-12-17T07:20:08.095Z,0.80
2017-12-17T07:22:11.572Z,0.80
2017-12-17T07:24:14.267Z,0.90
2017-12-17T07:26:17.720Z,0.80
2017-12-17T07:28:20.446Z,0.80
2017-12-17T07:30:23.164Z,0.90
2017-12-17T07:32:25.869Z,0.90
2017-12-17T07:34:28.574Z,0.90
2017-12-17T07:36:31.291Z,0.90
2017-12-17T07:38:33.961Z,0.90
2017-12-17T07:40:36.684Z,0.90
2017-12-17T07:42:39.384Z,0.90
2017-12-17T07:44:42.070Z,0.90
2017-12-17T07:46:44.774Z,0.90
2017-12-17T07:48:47.487Z,0.90
2017-12-17T07:50:50.175Z,0.90
2017-12-17T07:52:53.658Z,0.90
2017-12-17T07:54:56.376Z,0.90
2017-12-17T07:56:59.134Z,0.90
2017-12-17T07:59:02.640Z,0.90
2017-12-17T08:01:05.317Z,0.90
2017-12-17T08:03:08.014Z,0.90
2017-12-17T08:05:10.726Z,0.90
2017-12-17T08:07:13.420Z,0.90
2017-12-17T08:09:17.216Z,1.00
2017-12-17T08:11:19.914Z,0.90
2017-12-17T08:13:23.364Z,0.90
2017-12-17T08:15:26.056Z,0.90
2017-12-17T08:17:28.781Z,1.00
2017-12-17T08:19:31.482Z,1.00
2017-12-17T08:21:34.747Z,0.90
2017-12-17T08:23:37.470Z,1.00
2017-12-17T08:25:40.167Z,1.00
2017-12-17T08:27:43.607Z,1.10
2017-12-17T08:29:46.329Z,1.00
2017-12-17T08:31:49.022Z,1.10
2017-12-17T08:33:52.481Z,1.20
2017-12-17T08:35:55.188Z,1.10
2017-12-17T08:37:58.631Z,1.10
2017-12-17T08:40:01.377Z,1.10
2017-12-17T08:42:04.052Z,1.10
2017-12-17T08:44:07.519Z,1.10
2017-12-17T08:46:10.267Z,1.10
2017-12-17T08:48:12.941Z,1.10
2017-12-17T08:50:21.617Z,1.10
2017-12-17T08:52:24.610Z,1.20
2017-12-17T08:54:27.328Z,1.40
2017-12-17T08:56:30.040Z,1.40
2017-12-17T08:58:33.527Z,1.50
2017-12-17T09:00:36.247Z,1.50
2017-12-17T09:02:38.952Z,1.50
2017-12-17T09:04:41.652Z,1.60
2017-12-17T09:06:44.363Z,1.60
2017-12-17T09:08:47.055Z,1.70
2017-12-17T09:10:49.784Z,1.50
2017-12-17T09:12:52.476Z,1.50
2017-12-17T09:14:56.026Z,1.70
2017-12-17T09:16:58.721Z,1.60
2017-12-17T09:19:01.432Z,1.60
2017-12-17T09:21:05.177Z,1.80
2017-12-17T09:23:07.893Z,1.70
2017-12-17T09:25:10.970Z,2.00
2017-12-17T09:27:13.679Z,2.10
2017-12-17T09:29:17.142Z,1.70
2017-12-17T09:31:19.842Z,1.70
2017-12-17T09:33:24.491Z,1.70
2017-12-17T09:35:28.023Z,1.70
2017-12-17T09:37:30.935Z,1.90
2017-12-17T09:39:34.437Z,2.00
2017-12-17T09:41:37.900Z,1.90
2017-12-17T09:43:40.639Z,1.90
2017-12-17T09:45:44.218Z,2.00
2017-12-17T09:47:46.960Z,2.00
2017-12-17T09:49:49.660Z,2.00
2017-12-17T09:51:53.140Z,2.10
2017-12-17T09:53:55.825Z,2.10
2017-12-17T09:55:59.280Z,2.00
2017-12-17T09:58:02.013Z,1.90
2017-12-17T10:00:04.718Z,2.00
2017-12-17T10:02:07.428Z,2.00
2017-12-17T10:04:10.143Z,2.10
2017-12-17T10:06:12.839Z,2.00
2017-12-17T10:08:15.513Z,1.90
2017-12-17T10:10:18.244Z,2.00
2017-12-17T10:12:20.933Z,2.20
2017-12-17T10:14:24.571Z,2.20
2017-12-17T10:16:27.295Z,2.10
2017-12-17T10:18:30.009Z,2.10
2017-12-17T10:20:32.683Z,2.00
2017-12-17T10:22:35.401Z,2.00
2017-12-17T10:24:38.089Z,2.20
2017-12-17T10:26:40.796Z,2.20
2017-12-17T10:28:44.244Z,2.30
2017-12-17T10:30:47.095Z,2.30
2017-12-17T10:32:49.859Z,2.20
2017-12-17T10:34:52.643Z,2.20
2017-12-17T10:36:55.360Z,2.40
2017-12-17T10:38:58.064Z,2.50
2017-12-17T10:41:00.803Z,2.30
2017-12-17T10:43:03.485Z,2.20
2017-12-17T10:45:06.183Z,2.20
2017-12-17T10:47:08.910Z,2.20
2017-12-17T10:49:11.606Z,2.20
2017-12-17T10:51:14.273Z,2.20
2017-12-17T10:53:17.002Z,2.20
2017-12-17T10:55:19.741Z,2.20
2017-12-17T10:57:22.436Z,2.30
2017-12-17T10:59:25.194Z,2.40
2017-12-17T11:01:27.889Z,2.50
2017-12-17T11:03:30.576Z,2.40
2017-12-17T11:05:33.295Z,2.50
2017-12-17T11:07:35.972Z,2.60
2017-12-17T11:09:38.695Z,2.60
2017-12-17T11:11:41.421Z,2.70
2017-12-17T11:13:44.919Z,2.60
2017-12-17T11:15:48.396Z,2.80
2017-12-17T11:17:51.873Z,3.10
2017-12-17T11:19:54.637Z,3.10
2017-12-17T11:21:57.380Z,3.10
2017-12-17T11:24:01.782Z,3.00
2017-12-17T11:26:05.383Z,2.80
2017-12-17T11:28:08.086Z,2.80
2017-12-17T11:30:10.829Z,2.90
2017-12-17T11:32:14.277Z,2.70
2017-12-17T11:34:16.978Z,2.70
2017-12-17T11:36:19.984Z,2.80
2017-12-17T11:38:23.449Z,2.70
2017-12-17T11:40:26.185Z,2.70
2017-12-17T11:42:28.885Z,2.80
2017-12-17T11:44:31.604Z,2.90
2017-12-17T11:46:34.358Z,2.90
2017-12-17T11:48:37.170Z,2.80
2017-12-17T11:50:40.630Z,3.10
2017-12-17T11:52:44.430Z,3.00
2017-12-17T11:54:47.457Z,3.00
2017-12-17T11:56:50.182Z,3.00
2017-12-17T11:58:52.886Z,3.10
2017-12-17T12:00:55.614Z,3.10
2017-12-17T12:02:58.294Z,3.10
2017-12-17T12:05:00.987Z,3.00
2017-12-17T12:07:03.715Z,3.10
2017-12-17T12:09:06.440Z,3.10
2017-12-17T12:11:09.190Z,3.30
2017-12-17T12:13:11.910Z,3.40
2017-12-17T12:15:14.623Z,3.30
2017-12-17T12:17:18.095Z,3.20
2017-12-17T12:19:20.827Z,3.20
2017-12-17T12:21:23.577Z,3.10
2017-12-17T12:23:26.299Z,3.00
2017-12-17T12:25:28.998Z,3.00
2017-12-17T12:27:31.709Z,3.10
2017-12-17T12:29:34.580Z,3.10
2017-12-17T12:31:38.075Z,3.20
2017-12-17T12:33:40.809Z,3.20
2017-12-17T12:35:43.511Z,3.30
2017-12-17T12:37:46.213Z,3.30
2017-12-17T12:39:48.892Z,3.30
2017-12-17T12:41:51.603Z,3.30
2017-12-17T12:43:54.322Z,3.30
2017-12-17T12:45:57.812Z,3.40
2017-12-17T12:48:00.497Z,3.40
2017-12-17T12:50:03.990Z,3.50
2017-12-17T12:52:06.773Z,3.40
2017-12-17T12:54:10.239Z,3.40
2017-12-17T12:56:12.972Z,3.40
2017-12-17T12:58:15.660Z,3.30
2017-12-17T13:00:18.371Z,3.30
2017-12-17T13:02:21.125Z,3.30
2017-12-17T13:04:23.803Z,3.40
2017-12-17T13:06:26.492Z,3.30
2017-12-17T13:08:29.225Z,3.40
2017-12-17T13:10:31.929Z,3.30
2017-12-17T13:12:34.688Z,3.40
2017-12-17T13:14:37.368Z,3.50
2017-12-17T13:16:40.103Z,3.40
2017-12-17T13:18:42.833Z,3.30
2017-12-17T13:20:45.553Z,3.40
2017-12-17T13:22:48.282Z,3.40
2017-12-17T13:24:51.006Z,3.40
2017-12-17T13:26:53.706Z,3.30
2017-12-17T13:28:57.146Z,3.30
2017-12-17T13:30:59.848Z,3.30
2017-12-17T13:33:02.550Z,3.50
2017-12-17T13:35:06.039Z,3.50
2017-12-17T13:37:09.510Z,3.30
2017-12-17T13:39:12.188Z,3.30
2017-12-17T13:41:14.900Z,3.30
2017-12-17T13:43:18.388Z,3.40
2017-12-17T13:45:21.852Z,3.40
2017-12-17T13:47:24.556Z,3.40
2017-12-17T13:49:28.225Z,3.40
2017-12-17T13:51:30.909Z,3.30
2017-12-17T13:53:33.601Z,3.40
2017-12-17T13:55:36.291Z,3.30
2017-12-17T13:57:39.817Z,3.30
2017-12-17T13:59:42.517Z,3.30
2017-12-17T14:01:45.217Z,3.30
2017-12-17T14:03:47.901Z,3.20
2017-12-17T14:05:50.649Z,3.20
2017-12-17T14:07:53.366Z,3.20
2017-12-17T14:09:56.868Z,3.00
2017-12-17T14:12:00.489Z,3.00
2017-12-17T14:14:03.196Z,3.00
2017-12-17T14:16:05.884Z,3.00
2017-12-17T14:18:08.653Z,3.00
2017-12-17T14:20:11.371Z,2.90
2017-12-17T14:22:14.825Z,3.00
2017-12-17T14:24:17.562Z,3.00
2017-12-17T14:26:20.247Z,3.00
2017-12-17T14:28:22.958Z,3.00
2017-12-17T14:30:25.676Z,3.00
2017-12-17T14:32:29.114Z,3.00
2017-12-17T14:34:31.898Z,3.00
2017-12-17T14:36:34.650Z,3.00
2017-12-17T14:41:17.120Z,3.00
2017-12-17T14:43:19.851Z,3.00
2017-12-17T14:45:22.556Z,3.00
2017-12-17T14:47:25.259Z,3.00
2017-12-17T14:49:27.957Z,3.00
2017-12-17T14:51:31.439Z,3.00
2017-12-17T14:53:34.147Z,3.00
2017-12-17T14:55:36.874Z,3.00
2017-12-17T14:57:39.648Z,3.00
2017-12-17T14:59:42.343Z,3.00
2017-12-17T15:01:45.069Z,3.00
2017-12-17T15:03:47.763Z,2.90
2017-12-17T15:05:50.457Z,2.80
2017-12-17T15:07:53.221Z,2.90
2017-12-17T15:09:55.940Z,2.90
2017-12-17T15:11:59.425Z,2.80
2017-12-17T15:14:02.128Z,2.80
2017-12-17T15:16:04.815Z,2.90
2017-12-17T15:18:07.516Z,2.80
2017-12-17T15:20:10.237Z,2.80
2017-12-17T15:22:13.693Z,2.80
2017-12-17T15:24:16.381Z,2.80
2017-12-17T15:26:19.119Z,2.80
2017-12-17T15:28:21.956Z,2.80
2017-12-17T15:30:24.679Z,2.90
2017-12-17T15:32:27.547Z,2.80
2017-12-17T15:34:30.246Z,2.80
2017-12-17T15:36:32.934Z,2.80
2017-12-17T15:38:35.671Z,2.80
2017-12-17T15:40:38.352Z,2.80
2017-12-17T15:42:41.061Z,2.80
2017-12-17T15:44:43.812Z,2.80
2017-12-17T15:46:46.496Z,2.90
2017-12-17T15:48:49.178Z,2.80
2017-12-17T15:50:51.881Z,2.80
2017-12-17T15:52:54.653Z,2.70
2017-12-17T15:54:57.381Z,2.70
2017-12-17T15:57:00.104Z,2.70
2017-12-17T15:59:02.860Z,2.70
2017-12-17T16:01:05.567Z,2.70
2017-12-17T16:03:08.320Z,2.60
2017-12-17T16:05:11.002Z,2.50
2017-12-17T16:07:13.733Z,2.40
2017-12-17T16:09:17.188Z,2.30
2017-12-17T16:11:19.874Z,2.20
2017-12-17T16:13:26.052Z,2.20
2017-12-17T16:15:28.741Z,2.30
2017-12-17T16:17:32.197Z,2.20
2017-12-17T16:19:34.917Z,2.20
2017-12-17T16:21:38.467Z,2.30
2017-12-17T16:23:41.180Z,2.30
2017-12-17T16:25:44.639Z,2.50
2017-12-17T16:27:47.365Z,2.50
2017-12-17T16:29:50.818Z,2.60
2017-12-17T16:31:53.466Z,2.60
2017-12-17T16:33:56.186Z,2.70
2017-12-17T16:35:58.876Z,2.70
2017-12-17T16:38:02.374Z,2.80
2017-12-17T16:40:05.055Z,2.80
2017-12-17T16:42:08.495Z,2.80
2017-12-17T16:44:11.128Z,2.80
2017-12-17T16:46:14.611Z,2.80
2017-12-17T16:48:17.300Z,2.80
2017-12-17T16:50:20.736Z,2.80
2017-12-17T16:52:23.446Z,2.80
2017-12-17T16:54:26.107Z,2.80
2017-12-17T16:56:28.804Z,2.80
2017-12-17T16:58:31.587Z,2.80
2017-12-17T17:00:34.281Z,2.80
2017-12-17T17:02:37.730Z,2.90
2017-12-17T17:04:40.413Z,2.90
2017-12-17T17:06:43.083Z,2.90
2017-12-17T17:08:45.754Z,2.90
2017-12-17T17:10:48.438Z,2.80
2017-12-17T17:12:51.125Z,2.80
2017-12-17T17:14:53.831Z,2.80
2017-12-17T17:16:57.277Z,2.90
2017-12-17T17:18:59.975Z,2.80
2017-12-17T17:21:02.622Z,2.80
2017-12-17T17:23:05.301Z,2.80
2017-12-17T17:25:07.967Z,2.80
2017-12-17T17:27:10.637Z,2.80
2017-12-17T17:29:13.333Z,2.80
2017-12-17T17:31:15.987Z,2.80
2017-12-17T17:33:18.646Z,2.80
2017-12-17T17:35:21.383Z,2.80
2017-12-17T17:37:24.036Z,2.90
2017-12-17T17:39:26.713Z,2.90
2017-12-17T17:41:29.432Z,2.90
2017-12-17T17:43:37.513Z,2.90
2017-12-17T17:45:40.185Z,2.90
2017-12-17T17:47:42.821Z,2.90
2017-12-17T17:49:45.468Z,3.00
2017-12-17T17:51:48.938Z,2.90
2017-12-17T17:53:51.613Z,2.90
2017-12-17T17:55:54.282Z,2.90
2017-12-17T17:57:56.960Z,2.90
2017-12-17T17:59:59.649Z,3.00
2017-12-17T18:02:02.389Z,3.00
2017-12-17T18:04:05.058Z,3.00
2017-12-17T18:06:07.750Z,3.00
2017-12-17T18:08:10.469Z,3.00
2017-12-17T18:10:13.920Z,3.00
2017-12-17T18:12:16.597Z,3.00
2017-12-17T18:14:19.278Z,3.00
2017-12-17T18:16:21.921Z,3.00
2017-12-17T18:18:24.572Z,3.00
2017-12-17T18:20:28.031Z,2.90
2017-12-17T18:22:30.731Z,2.90
2017-12-17T18:24:33.395Z,3.00
2017-12-17T18:26:36.088Z,2.90
2017-12-17T18:28:39.523Z,2.90
2017-12-17T18:30:42.184Z,2.90
2017-12-17T18:32:44.917Z,2.90
2017-12-17T18:34:47.631Z,2.90
2017-12-17T18:36:50.342Z,2.90
2017-12-17T18:38:53.071Z,2.90
2017-12-17T18:40:56.483Z,2.80
2017-12-17T18:42:59.170Z,2.80
2017-12-17T18:45:01.817Z,2.80
2017-12-17T18:47:05.228Z,2.80
2017-12-17T18:49:07.888Z,2.80
2017-12-17T18:51:11.301Z,2.90
2017-12-17T18:53:13.982Z,2.90
2017-12-17T18:55:16.671Z,2.80
2017-12-17T18:57:19.337Z,2.90
2017-12-17T18:59:21.997Z,2.90
2017-12-17T19:01:24.674Z,2.90
2017-12-17T19:03:27.330Z,2.90
2017-12-17T19:05:30.866Z,2.80
2017-12-17T19:07:35.813Z,2.80
2017-12-17T19:09:39.236Z,2.80
2017-12-17T19:11:41.885Z,2.80
2017-12-17T19:13:44.575Z,2.80
2017-12-17T19:15:48.028Z,2.80
2017-12-17T19:17:50.707Z,2.80
2017-12-17T19:19:53.420Z,2.80
2017-12-17T19:21:56.088Z,2.80
2017-12-17T19:23:58.757Z,2.80
2017-12-17T19:26:01.476Z,2.90
2017-12-17T19:28:04.931Z,2.90
2017-12-17T19:30:07.626Z,2.90
2017-12-17T19:32:10.338Z,2.90
2017-12-17T19:34:13.745Z,2.90
2017-12-17T19:36:16.412Z,2.90
2017-12-17T19:38:19.116Z,2.90
2017-12-17T19:40:21.814Z,2.90
2017-12-17T19:42:24.497Z,3.00
2017-12-17T19:44:27.133Z,3.00
2017-12-17T19:46:29.776Z,3.00
2017-12-17T19:48:33.260Z,3.00
2017-12-17T19:50:35.947Z,2.90
2017-12-17T19:52:39.380Z,2.90
2017-12-17T19:54:42.058Z,2.90
2017-12-17T19:56:44.717Z,3.00
2017-12-17T19:58:47.374Z,3.00
2017-12-17T20:00:50.879Z,3.00
2017-12-17T20:02:54.298Z,3.00
2017-12-17T20:04:56.965Z,3.00
2017-12-17T20:07:00.427Z,3.00
2017-12-17T20:09:03.912Z,3.00
2017-12-17T20:11:07.648Z,3.00
2017-12-17T20:13:10.327Z,3.00
2017-12-17T20:15:13.009Z,3.00
2017-12-17T20:17:15.684Z,3.00
2017-12-17T20:19:18.365Z,3.00
2017-12-17T20:21:21.033Z,3.00
2017-12-17T20:23:23.751Z,3.00
2017-12-17T20:25:26.428Z,3.00
2017-12-17T20:27:29.105Z,3.00
2017-12-17T20:29:31.802Z,3.00
2017-12-17T20:31:34.637Z,3.00
2017-12-17T20:33:37.303Z,3.00
2017-12-17T20:35:40.989Z,3.00
2017-12-17T20:37:43.676Z,3.00
2017-12-17T20:39:46.320Z,3.00
2017-12-17T20:41:49.748Z,3.00
2017-12-17T20:43:52.415Z,3.00
2017-12-17T20:45:55.088Z,3.00
2017-12-17T20:47:57.734Z,3.00
2017-12-17T20:50:02.253Z,3.00
2017-12-17T20:52:05.756Z,3.00
2017-12-17T20:54:09.205Z,3.00
2017-12-17T20:56:11.856Z,3.00
2017-12-17T20:58:14.515Z,3.00
2017-12-17T21:00:17.246Z,3.00
2017-12-17T21:02:19.973Z,3.00
2017-12-17T21:04:22.624Z,3.00
2017-12-17T21:06:25.303Z,3.00
2017-12-17T21:08:29.161Z,2.90
2017-12-17T21:10:31.860Z,3.00
2017-12-17T21:12:34.510Z,3.00
2017-12-17T21:14:37.155Z,3.00
2017-12-17T21:16:39.866Z,3.00
2017-12-17T21:18:42.538Z,3.00
2017-12-17T21:20:45.219Z,3.00
2017-12-17T21:22:47.907Z,2.90
2017-12-17T21:24:50.565Z,2.90
2017-12-17T21:26:53.227Z,2.90
2017-12-17T21:28:55.937Z,2.80
2017-12-17T21:30:58.631Z,2.80
2017-12-17T21:33:01.323Z,2.80
2017-12-17T21:35:04.774Z,2.60
2017-12-17T21:37:07.430Z,2.60
2017-12-17T21:39:10.107Z,2.60
2017-12-17T21:41:12.813Z,2.50
2017-12-17T21:43:15.450Z,2.50
2017-12-17T21:45:18.098Z,2.50
2017-12-17T21:47:21.528Z,2.40
2017-12-17T21:49:24.172Z,2.40
2017-12-17T21:51:27.630Z,2.40
2017-12-17T21:53:30.286Z,2.30
2017-12-17T21:55:32.954Z,2.30
2017-12-17T21:57:35.657Z,2.30
2017-12-17T21:59:38.345Z,2.30
2017-12-17T22:01:40.990Z,2.20
2017-12-17T22:03:43.683Z,2.10
2017-12-17T22:05:46.316Z,2.10
2017-12-17T22:07:49.000Z,2.00
2017-12-17T22:09:52.484Z,1.80
2017-12-17T22:11:55.115Z,1.80
2017-12-17T22:13:57.757Z,1.90
2017-12-17T22:16:00.423Z,1.90
2017-12-17T22:18:03.075Z,1.90
2017-12-17T22:20:06.522Z,1.90
2017-12-17T22:22:09.191Z,1.90
2017-12-17T22:24:11.819Z,1.80
2017-12-17T22:26:15.240Z,1.80
2017-12-17T22:28:17.927Z,1.80
2017-12-17T22:30:20.585Z,1.80
2017-12-17T22:32:23.221Z,1.70
2017-12-17T22:34:25.890Z,1.70
2017-12-17T22:36:28.547Z,1.70
2017-12-17T22:38:31.223Z,1.70
2017-12-17T22:40:33.861Z,1.70
2017-12-17T22:42:36.573Z,1.70
2017-12-17T22:44:39.256Z,1.60
2017-12-17T22:46:41.933Z,1.60
2017-12-17T22:48:44.632Z,1.70
2017-12-17T22:50:47.312Z,1.60
2017-12-17T22:52:50.024Z,1.60
2017-12-17T22:54:52.702Z,1.60
2017-12-17T22:56:55.399Z,1.60
2017-12-17T22:58:58.074Z,1.50
2017-12-17T23:01:00.732Z,1.50
2017-12-17T23:03:03.417Z,1.50
2017-12-17T23:05:06.131Z,1.50
2017-12-17T23:07:08.818Z,1.50
2017-12-17T23:09:11.506Z,1.40
2017-12-17T23:11:14.925Z,1.40
2017-12-17T23:13:17.598Z,1.30
2017-12-17T23:15:20.276Z,1.30
2017-12-17T23:17:22.937Z,1.30
2017-12-17T23:19:26.374Z,1.10
2017-12-17T23:21:29.055Z,1.10
2017-12-17T23:23:31.726Z,1.10
2017-12-17T23:25:34.398Z,1.00
2017-12-17T23:27:37.122Z,0.90
2017-12-17T23:29:39.776Z,0.90
2017-12-17T23:31:42.435Z,0.80
2017-12-17T23:33:45.146Z,0.80
2017-12-17T23:35:47.796Z,0.70
2017-12-17T23:37:50.525Z,0.70
2017-12-17T23:39:53.213Z,0.70
2017-12-17T23:41:55.894Z,0.70
2017-12-17T23:43:58.566Z,0.70
2017-12-17T23:46:01.303Z,0.60
2017-12-17T23:48:04.151Z,0.70
2017-12-17T23:50:08.022Z,0.70
2017-12-17T23:52:10.802Z,0.70
2017-12-17T23:54:13.498Z,0.70
2017-12-17T23:56:16.166Z,0.70
2017-12-17T23:58:18.871Z,0.70
